Time;durP1;ratioP1;P1;durP2;ratioP2;P2;SDS_P1;SDS_P2;PMS_P1;PMS_P2;Temp;Humidity;BMP_temperature;BMP_pressure;BME280_temperature;BME280_humidity;BME280_pressure;Samples;Min_cycle;Max_cycle;Signal;HPM_P1;HPM_P2
2023/05/14 00:01:16;;;;;;;2.55;2.03;;;19.60;72.60;;;;;;5040587;28;45411;-72
2023/05/14 00:03:44;;;;;;;2.28;1.75;;;19.60;72.60;;;;;;5043014;28;45308;-72
2023/05/14 00:06:11;;;;;;;1.63;1.52;;;19.60;72.70;;;;;;5042293;28;45372;-72
2023/05/14 00:08:38;;;;;;;2.40;1.90;;;19.60;72.70;;;;;;5042500;28;47335;-72
2023/05/14 00:11:07;;;;;;;1.92;1.73;;;19.60;72.70;;;;;;5042646;28;45322;-72
2023/05/14 00:13:34;;;;;;;2.75;1.90;;;19.60;72.60;;;;;;5043151;28;45308;-72
2023/05/14 00:16:01;;;;;;;3.92;1.95;;;19.60;72.70;;;;;;5042801;28;45224;-72
2023/05/14 00:18:28;;;;;;;2.53;2.00;;;19.60;72.60;;;;;;5042314;28;48676;-72
2023/05/14 00:20:56;;;;;;;2.33;1.77;;;19.60;72.60;;;;;;5042736;28;45854;-72
2023/05/14 00:23:23;;;;;;;4.57;2.05;;;19.60;72.50;;;;;;5042932;28;45454;-72
2023/05/14 00:25:50;;;;;;;1.90;1.60;;;19.60;72.50;;;;;;5042901;28;45202;-72
2023/05/14 00:28:17;;;;;;;2.97;1.75;;;19.60;72.40;;;;;;5042375;28;46617;-72
2023/05/14 00:30:44;;;;;;;2.15;1.95;;;19.60;72.40;;;;;;5042357;28;45592;-72
2023/05/14 00:33:11;;;;;;;2.10;1.90;;;19.60;72.30;;;;;;5042851;28;45322;-72
2023/05/14 00:35:38;;;;;;;2.28;1.88;;;19.60;72.30;;;;;;5042383;28;45539;-71
2023/05/14 00:38:06;;;;;;;2.58;2.10;;;19.50;72.10;;;;;;5042147;28;46606;-72
2023/05/14 00:40:33;;;;;;;2.35;1.70;;;19.60;72.20;;;;;;5041930;28;45313;-73
2023/05/14 00:42:59;;;;;;;2.92;2.10;;;19.60;72.30;;;;;;5042223;28;45253;-72
2023/05/14 00:45:27;;;;;;;3.17;2.30;;;19.50;72.10;;;;;;5042015;28;45175;-73
2023/05/14 00:47:54;;;;;;;3.47;1.73;;;19.60;72.20;;;;;;5041797;28;46399;-72
2023/05/14 00:50:21;;;;;;;2.42;1.83;;;19.60;72.20;;;;;;5041443;28;45451;-72
2023/05/14 00:52:49;;;;;;;2.13;1.70;;;19.60;72.10;;;;;;5042601;28;45389;-72
2023/05/14 00:55:17;;;;;;;2.45;1.98;;;19.50;72.00;;;;;;5041979;28;45459;-72
2023/05/14 00:57:44;;;;;;;1.88;1.75;;;19.60;72.20;;;;;;5042116;28;46172;-73
2023/05/14 01:00:12;;;;;;;2.22;1.70;;;19.60;72.20;;;;;;5042073;28;45307;-72
2023/05/14 01:02:38;;;;;;;2.53;1.88;;;19.60;72.20;;;;;;5042329;28;45331;-72
2023/05/14 01:05:06;;;;;;;2.03;1.83;;;19.60;72.20;;;;;;5039958;28;45501;-73
2023/05/14 01:07:39;;;;;;;2.58;1.98;;;19.60;72.20;;;;;;5041749;27;46394;-72
2023/05/14 01:10:11;;;;;;;2.33;2.05;;;19.60;72.10;;;;;;5039119;28;45373;-72
2023/05/14 01:12:47;;;;;;;3.78;2.30;;;19.60;72.10;;;;;;5039015;28;45375;-72
2023/05/14 01:15:19;;;;;;;2.60;2.13;;;19.60;72.10;;;;;;5038640;28;45262;-72
2023/05/14 01:17:51;;;;;;;2.53;1.95;;;19.50;72.40;;;;;;5041493;28;48162;-72
2023/05/14 01:20:18;;;;;;;3.22;2.15;;;19.60;72.00;;;;;;5041564;28;46336;-72
2023/05/14 01:22:46;;;;;;;2.33;1.92;;;19.60;72.00;;;;;;5042116;28;45211;-72
2023/05/14 01:25:13;;;;;;;3.75;2.20;;;19.50;71.80;;;;;;5041928;28;45427;-72
2023/05/14 01:27:46;;;;;;;2.53;1.83;;;19.50;71.60;;;;;;5041641;28;46321;-72
2023/05/14 01:30:21;;;;;;;2.67;2.10;;;19.50;71.50;;;;;;5041794;28;45192;-72
2023/05/14 01:32:53;;;;;;;2.63;2.10;;;19.50;71.50;;;;;;5042168;27;45314;-72
2023/05/14 01:35:22;;;;;;;2.65;1.98;;;19.50;71.50;;;;;;5041098;27;45432;-72
2023/05/14 01:37:50;;;;;;;2.58;2.03;;;19.50;71.60;;;;;;5041540;28;45400;-72
2023/05/14 01:40:17;;;;;;;2.58;2.00;;;19.50;71.60;;;;;;5041793;28;45434;-72
2023/05/14 01:42:45;;;;;;;1.90;1.70;;;19.50;71.50;;;;;;5042043;28;45290;-72
2023/05/14 01:45:12;;;;;;;2.25;2.00;;;19.50;71.50;;;;;;5041573;28;45205;-73
2023/05/14 01:47:39;;;;;;;3.13;1.92;;;19.50;71.50;;;;;;5040475;28;47941;-72
2023/05/14 01:50:06;;;;;;;2.05;1.75;;;19.50;71.50;;;;;;5041366;28;45341;-73
2023/05/14 01:52:33;;;;;;;2.33;1.90;;;19.50;71.40;;;;;;5041806;28;45364;-72
2023/05/14 01:55:02;;;;;;;2.15;1.70;;;19.50;71.30;;;;;;5042041;28;45275;-72
2023/05/14 01:57:29;;;;;;;3.25;2.00;;;19.50;71.30;;;;;;5032459;28;46569;-72
2023/05/14 01:59:56;;;;;;;3.03;2.25;;;19.50;71.20;;;;;;5041086;28;45582;-72
2023/05/14 02:02:23;;;;;;;1.90;1.70;;;19.50;71.00;;;;;;5041582;28;45282;-72
2023/05/14 02:04:50;;;;;;;2.55;2.03;;;19.50;71.00;;;;;;5041637;28;45183;-72
2023/05/14 02:07:16;;;;;;;3.25;2.22;;;19.50;71.10;;;;;;5040734;28;46536;-72
2023/05/14 02:09:43;;;;;;;3.00;2.58;;;19.50;71.00;;;;;;5041299;28;45358;-72
2023/05/14 02:12:11;;;;;;;2.22;1.83;;;19.50;71.00;;;;;;5041668;28;45333;-71
2023/05/14 02:14:38;;;;;;;2.70;2.05;;;19.50;72.20;;;;;;5041202;28;45305;-72
2023/05/14 02:17:05;;;;;;;3.00;2.22;;;19.50;71.10;;;;;;5040769;28;47784;-73
2023/05/14 02:19:32;;;;;;;2.58;2.08;;;19.50;71.20;;;;;;5041015;28;45309;-72
2023/05/14 02:21:59;;;;;;;2.55;2.10;;;19.50;71.10;;;;;;5041015;27;45366;-72
2023/05/14 02:24:26;;;;;;;2.50;2.20;;;19.50;71.10;;;;;;5040669;28;45611;-72
2023/05/14 02:26:53;;;;;;;3.08;2.30;;;19.50;71.10;;;;;;5040940;28;47301;-72
2023/05/14 02:29:21;;;;;;;2.33;1.85;;;19.50;71.10;;;;;;5041049;28;45287;-72
2023/05/14 02:31:48;;;;;;;3.22;2.33;;;19.50;71.10;;;;;;5041423;28;45246;-72
2023/05/14 02:34:15;;;;;;;2.08;1.80;;;19.50;71.10;;;;;;5041065;28;45185;-72
2023/05/14 02:36:41;;;;;;;2.42;2.20;;;19.50;71.00;;;;;;5040613;28;48341;-72
2023/05/14 02:39:08;;;;;;;4.10;2.50;;;19.50;70.90;;;;;;5040390;27;45242;-72
2023/05/14 02:41:35;;;;;;;3.10;2.17;;;19.50;70.70;;;;;;5041057;27;45344;-72
2023/05/14 02:44:02;;;;;;;3.28;2.30;;;19.50;70.60;;;;;;5040886;28;45189;-72
2023/05/14 02:46:30;;;;;;;2.75;2.20;;;19.50;70.50;;;;;;5039145;28;46317;-72
2023/05/14 02:48:57;;;;;;;4.35;2.53;;;19.50;70.50;;;;;;5040649;28;45384;-72
2023/05/14 02:51:25;;;;;;;2.88;2.20;;;19.50;70.60;;;;;;5040406;28;45279;-72
2023/05/14 02:53:51;;;;;;;4.25;2.78;;;19.40;70.50;;;;;;5040935;27;45348;-72
2023/05/14 02:56:18;;;;;;;3.58;2.30;;;19.40;70.50;;;;;;5040120;28;47497;-72
2023/05/14 02:58:45;;;;;;;2.83;2.00;;;19.40;70.70;;;;;;5040455;28;45293;-72
2023/05/14 03:01:12;;;;;;;2.90;2.20;;;19.40;70.80;;;;;;5040597;28;45273;-72
2023/05/14 03:03:40;;;;;;;3.15;2.35;;;19.40;71.90;;;;;;5040309;28;45556;-72
2023/05/14 03:06:07;;;;;;;4.20;2.58;;;19.40;70.80;;;;;;5043218;28;48007;-72
2023/05/14 03:08:34;;;;;;;2.63;2.22;;;19.40;70.80;;;;;;5043305;28;46256;-72
2023/05/14 03:11:00;;;;;;;2.53;2.15;;;19.40;70.70;;;;;;5043543;28;45512;-72
2023/05/14 03:13:27;;;;;;;2.58;2.35;;;19.40;70.70;;;;;;5043520;28;45654;-73
2023/05/14 03:15:55;;;;;;;3.75;2.13;;;19.40;70.80;;;;;;5043107;27;45260;-72
2023/05/14 03:18:22;;;;;;;4.28;2.55;;;19.50;70.80;;;;;;5043236;28;45381;-72
2023/05/14 03:20:50;;;;;;;3.25;2.58;;;19.50;70.80;;;;;;5043148;28;45185;-72
2023/05/14 03:23:17;;;;;;;3.15;2.60;;;19.50;70.60;;;;;;5043445;28;45411;-72
2023/05/14 03:25:43;;;;;;;2.50;2.10;;;19.50;70.60;;;;;;5042900;28;47492;-72
2023/05/14 03:28:10;;;;;;;3.03;2.50;;;19.40;70.50;;;;;;5043450;28;45443;-72
2023/05/14 03:30:37;;;;;;;3.15;2.50;;;19.40;70.20;;;;;;5043642;28;45451;-72
2023/05/14 03:33:04;;;;;;;2.80;2.50;;;19.40;70.40;;;;;;5043518;28;45291;-72
2023/05/14 03:35:31;;;;;;;2.72;2.25;;;19.40;70.20;;;;;;5034402;28;46427;-72
2023/05/14 03:37:59;;;;;;;3.45;2.20;;;19.40;70.20;;;;;;5043158;28;45454;-72
2023/05/14 03:40:26;;;;;;;3.17;2.20;;;19.40;70.10;;;;;;5043151;28;45256;-72
2023/05/14 03:42:52;;;;;;;3.53;2.22;;;19.40;70.10;;;;;;5043280;28;45291;-72
2023/05/14 03:45:19;;;;;;;2.38;1.85;;;19.40;70.10;;;;;;5042687;27;46551;-72
2023/05/14 03:47:46;;;;;;;3.35;2.10;;;19.40;70.00;;;;;;5041787;28;45487;-72
2023/05/14 03:50:13;;;;;;;3.53;2.60;;;19.40;70.20;;;;;;5042932;28;45345;-72
2023/05/14 03:52:40;;;;;;;3.08;2.40;;;19.40;70.10;;;;;;5043382;27;45182;-72
2023/05/14 03:55:09;;;;;;;3.15;2.55;;;19.40;70.20;;;;;;5042757;28;45496;-72
2023/05/14 03:57:36;;;;;;;3.30;2.40;;;19.40;70.00;;;;;;5043297;28;45458;-71
2023/05/14 04:00:03;;;;;;;2.75;2.22;;;19.50;70.10;;;;;;5040927;28;45442;-72
2023/05/14 04:02:30;;;;;;;4.22;2.53;;;19.40;70.00;;;;;;5035074;28;45153;-72
2023/05/14 04:04:56;;;;;;;2.88;2.35;;;19.40;70.10;;;;;;5042698;28;47053;-72
2023/05/14 04:07:23;;;;;;;3.42;2.30;;;19.40;69.90;;;;;;5042465;28;45459;-72
2023/05/14 04:09:50;;;;;;;3.63;2.65;;;19.40;69.80;;;;;;5042741;27;45361;-72
2023/05/14 04:12:19;;;;;;;2.97;2.40;;;19.40;69.70;;;;;;5041113;28;45461;-72
2023/05/14 04:14:46;;;;;;;3.08;2.17;;;19.40;69.60;;;;;;5042693;28;47261;-72
2023/05/14 04:17:12;;;;;;;4.10;2.70;;;19.40;69.60;;;;;;5041188;28;45278;-72
2023/05/14 04:19:39;;;;;;;3.95;2.50;;;19.40;69.40;;;;;;5043080;28;45311;-72
2023/05/14 04:22:06;;;;;;;4.97;2.60;;;19.40;69.60;;;;;;5042656;28;45349;-72
2023/05/14 04:24:33;;;;;;;2.70;2.30;;;19.40;69.50;;;;;;5042448;28;48046;-72
2023/05/14 04:27:00;;;;;;;3.08;2.45;;;19.40;69.40;;;;;;5042314;27;45273;-72
2023/05/14 04:29:28;;;;;;;5.80;2.33;;;19.40;69.40;;;;;;5042194;28;45225;-72
2023/05/14 04:31:54;;;;;;;2.85;2.35;;;19.40;69.30;;;;;;5042715;28;45528;-72
2023/05/14 04:34:21;;;;;;;2.40;2.10;;;19.40;69.40;;;;;;5042142;28;45510;-72
2023/05/14 04:36:48;;;;;;;2.28;2.05;;;19.50;69.50;;;;;;5042606;28;45404;-72
2023/05/14 04:39:15;;;;;;;3.85;2.42;;;19.40;69.20;;;;;;5042257;28;45252;-72
2023/05/14 04:41:42;;;;;;;3.58;2.30;;;19.40;69.20;;;;;;5042728;28;45184;-72
2023/05/14 04:44:09;;;;;;;1.90;1.70;;;19.40;69.30;;;;;;5042222;28;47283;-72
2023/05/14 04:46:37;;;;;;;2.05;1.77;;;19.40;69.30;;;;;;5041846;28;45272;-72
2023/05/14 04:49:04;;;;;;;2.95;2.17;;;19.40;69.40;;;;;;5042636;28;45349;-72
2023/05/14 04:51:31;;;;;;;2.20;2.00;;;19.40;69.30;;;;;;5042051;28;45431;-72
2023/05/14 04:53:58;;;;;;;3.20;2.17;;;19.40;69.20;;;;;;5042103;28;48449;-73
2023/05/14 04:56:25;;;;;;;2.35;2.10;;;19.40;69.10;;;;;;5041847;28;45482;-72
2023/05/14 04:58:52;;;;;;;3.35;2.20;;;19.40;69.00;;;;;;5042154;28;45238;-72
2023/05/14 05:01:18;;;;;;;2.38;2.13;;;19.40;69.10;;;;;;5038649;28;45403;-72
2023/05/14 05:03:47;;;;;;;2.92;2.40;;;19.40;68.90;;;;;;5027710;28;47649;-72
2023/05/14 05:06:13;;;;;;;2.30;1.92;;;19.40;68.90;;;;;;5041930;28;45368;-72
2023/05/14 05:08:40;;;;;;;2.70;2.22;;;19.40;68.90;;;;;;5041998;27;45367;-72
2023/05/14 05:11:07;;;;;;;2.53;2.20;;;19.40;69.00;;;;;;5041931;27;45500;-72
2023/05/14 05:13:34;;;;;;;2.90;2.40;;;19.40;69.00;;;;;;5041696;28;47523;-72
2023/05/14 05:16:00;;;;;;;2.28;2.08;;;19.40;69.10;;;;;;5041281;28;45220;-72
2023/05/14 05:18:27;;;;;;;3.30;2.20;;;19.40;69.10;;;;;;5042052;28;45212;-72
2023/05/14 05:20:55;;;;;;;4.43;2.20;;;19.50;69.10;;;;;;5041937;28;45320;-72
2023/05/14 05:23:22;;;;;;;2.25;1.88;;;19.50;69.20;;;;;;5041536;27;45550;-72
2023/05/14 05:25:49;;;;;;;2.35;2.00;;;19.50;69.20;;;;;;5040875;28;45307;-72
2023/05/14 05:28:16;;;;;;;2.85;2.50;;;19.50;69.20;;;;;;5041169;28;45287;-72
2023/05/14 05:30:43;;;;;;;1.95;1.77;;;19.50;69.20;;;;;;5041945;28;45531;-72
2023/05/14 05:33:10;;;;;;;3.25;2.03;;;19.50;69.30;;;;;;5041642;27;46829;-72
2023/05/14 05:35:37;;;;;;;3.50;2.50;;;19.50;69.20;;;;;;5041456;27;45402;-72
2023/05/14 05:38:06;;;;;;;3.15;2.20;;;19.50;69.10;;;;;;5042088;28;45402;-71
2023/05/14 05:40:32;;;;;;;3.03;2.33;;;19.50;69.10;;;;;;5041856;28;45444;-72
2023/05/14 05:42:59;;;;;;;2.80;2.10;;;19.50;69.10;;;;;;5041404;28;46595;-72
2023/05/14 05:45:26;;;;;;;2.80;1.95;;;19.50;69.10;;;;;;5032070;28;45612;-72
2023/05/14 05:47:53;;;;;;;2.22;1.85;;;19.50;69.10;;;;;;5035900;28;45281;-72
2023/05/14 05:50:20;;;;;;;2.65;2.25;;;19.50;69.10;;;;;;5041629;28;45379;-72
2023/05/14 05:52:47;;;;;;;3.17;2.33;;;19.50;69.10;;;;;;5038522;28;46085;-72
2023/05/14 05:55:15;;;;;;;4.57;2.45;;;19.50;69.20;;;;;;5041049;27;45224;-72
2023/05/14 05:57:42;;;;;;;2.75;2.15;;;19.50;69.10;;;;;;5042015;28;45499;-72
2023/05/14 06:00:13;;;;;;;3.38;2.17;;;19.50;69.20;;;;;;5039268;28;45335;-72
2023/05/14 06:02:40;;;;;;;3.13;2.13;;;19.50;69.20;;;;;;5041460;28;45574;-72
2023/05/14 06:05:08;;;;;;;2.45;2.13;;;19.50;69.40;;;;;;5041299;28;45264;-72
2023/05/14 06:07:35;;;;;;;2.92;1.92;;;19.50;69.40;;;;;;5041475;28;45338;-72
2023/05/14 06:10:01;;;;;;;2.88;2.28;;;19.50;69.40;;;;;;5041342;27;45423;-72
2023/05/14 06:12:29;;;;;;;2.40;2.05;;;19.50;69.50;;;;;;5040819;28;46250;-72
2023/05/14 06:14:57;;;;;;;4.15;2.60;;;19.50;69.60;;;;;;5041081;28;45306;-73
2023/05/14 06:17:23;;;;;;;2.25;2.00;;;19.50;69.60;;;;;;5040859;28;45438;-72
2023/05/14 06:19:51;;;;;;;3.10;2.25;;;19.50;69.60;;;;;;5041521;28;45416;-72
2023/05/14 06:22:18;;;;;;;2.47;1.95;;;19.50;69.60;;;;;;5041013;28;47156;-72
2023/05/14 06:24:45;;;;;;;4.22;2.58;;;19.50;69.80;;;;;;5041245;28;45408;-72
2023/05/14 06:27:12;;;;;;;2.60;2.17;;;19.50;70.90;;;;;;5041160;28;45248;-71
2023/05/14 06:29:40;;;;;;;3.20;2.67;;;19.50;70.00;;;;;;5041315;28;45542;-72
2023/05/14 06:32:07;;;;;;;3.30;2.17;;;19.50;70.00;;;;;;5040715;28;47465;-73
2023/05/14 06:34:34;;;;;;;4.70;2.60;;;19.50;70.10;;;;;;5041076;28;45321;-72
2023/05/14 06:37:02;;;;;;;3.38;2.40;;;19.50;70.10;;;;;;5040651;28;45368;-73
2023/05/14 06:39:29;;;;;;;3.40;2.15;;;19.50;70.20;;;;;;5041621;28;45376;-72
2023/05/14 06:41:56;;;;;;;2.92;2.20;;;19.50;70.30;;;;;;5043557;28;46993;-72
2023/05/14 06:44:22;;;;;;;2.83;2.30;;;19.50;70.30;;;;;;5043695;28;45619;-72
2023/05/14 06:46:50;;;;;;;2.83;2.17;;;19.50;70.20;;;;;;5043270;28;45266;-72
2023/05/14 06:49:17;;;;;;;3.05;2.15;;;19.50;70.30;;;;;;5044007;28;45377;-72
2023/05/14 06:51:44;;;;;;;2.63;2.03;;;19.50;70.30;;;;;;5043412;28;46234;-72
2023/05/14 06:54:11;;;;;;;2.75;2.38;;;19.50;70.30;;;;;;5043407;28;45387;-72
2023/05/14 06:56:38;;;;;;;4.15;2.60;;;19.50;70.40;;;;;;5043700;28;45133;-72
2023/05/14 06:59:05;;;;;;;2.83;2.30;;;19.60;70.50;;;;;;5043850;28;45354;-73
2023/05/14 07:01:32;;;;;;;3.30;2.17;;;19.60;70.50;;;;;;5041149;28;45323;-73
2023/05/14 07:04:00;;;;;;;3.53;2.35;;;19.60;70.60;;;;;;5043395;28;45482;-72
2023/05/14 07:06:26;;;;;;;3.38;2.30;;;19.60;70.70;;;;;;5043448;28;45338;-72
2023/05/14 07:08:53;;;;;;;2.95;2.38;;;19.50;70.70;;;;;;5043992;28;45584;-72
2023/05/14 07:11:20;;;;;;;4.43;2.78;;;19.60;70.90;;;;;;5043242;28;45393;-73
2023/05/14 07:13:47;;;;;;;2.50;2.25;;;19.60;70.90;;;;;;5043867;28;45403;-73
2023/05/14 07:16:14;;;;;;;3.78;2.63;;;19.60;71.10;;;;;;5043239;28;45397;-72
2023/05/14 07:18:41;;;;;;;3.13;2.72;;;19.60;71.00;;;;;;5043607;28;45499;-72
2023/05/14 07:21:09;;;;;;;2.42;2.20;;;19.60;71.20;;;;;;5043418;28;47283;-73
2023/05/14 07:23:37;;;;;;;4.28;2.53;;;19.50;71.00;;;;;;5043399;27;45306;-72
2023/05/14 07:26:04;;;;;;;2.70;2.38;;;19.50;71.30;;;;;;5043051;28;45387;-72
2023/05/14 07:28:31;;;;;;;2.38;2.00;;;19.60;71.30;;;;;;5043748;28;45390;-72
2023/05/14 07:30:58;;;;;;;2.70;2.28;;;19.60;71.30;;;;;;5043424;28;45477;-72
2023/05/14 07:33:25;;;;;;;2.80;2.25;;;19.60;71.40;;;;;;5042913;28;45126;-72
2023/05/14 07:35:52;;;;;;;2.40;2.20;;;19.60;71.30;;;;;;5042871;28;45205;-73
2023/05/14 07:38:21;;;;;;;6.03;2.38;;;19.60;71.30;;;;;;5043789;27;45322;-72
2023/05/14 07:40:47;;;;;;;2.53;2.17;;;19.60;71.30;;;;;;5043162;28;46665;-73
2023/05/14 07:43:14;;;;;;;2.50;2.20;;;19.60;71.30;;;;;;5043105;28;45231;-73
2023/05/14 07:45:41;;;;;;;2.95;2.25;;;19.60;71.30;;;;;;5042966;28;45370;-72
2023/05/14 07:48:08;;;;;;;2.75;2.40;;;19.60;71.20;;;;;;5043144;27;45464;-72
2023/05/14 07:50:35;;;;;;;3.33;2.35;;;19.60;71.40;;;;;;5042192;27;46725;-73
2023/05/14 07:53:01;;;;;;;4.15;2.75;;;19.60;71.40;;;;;;5042472;28;45338;-72
2023/05/14 07:55:30;;;;;;;3.58;2.35;;;19.60;71.70;;;;;;5043240;28;45388;-73
2023/05/14 07:57:57;;;;;;;3.10;2.40;;;19.60;71.80;;;;;;5043078;28;45559;-72
2023/05/14 08:00:23;;;;;;;3.90;2.92;;;19.60;71.90;;;;;;5037956;28;48057;-72
2023/05/14 08:02:50;;;;;;;3.13;2.55;;;19.60;71.90;;;;;;5037587;28;45272;-73
2023/05/14 08:05:17;;;;;;;3.42;2.65;;;19.60;71.90;;;;;;5042745;28;45390;-73
2023/05/14 08:07:44;;;;;;;5.10;3.00;;;19.60;72.00;;;;;;5043378;28;45250;-72
2023/05/14 08:10:11;;;;;;;3.20;2.53;;;19.60;72.10;;;;;;5042753;28;46372;-72
2023/05/14 08:12:39;;;;;;;4.57;2.80;;;19.60;72.00;;;;;;5042909;28;45373;-72
2023/05/14 08:15:08;;;;;;;4.65;2.50;;;19.60;72.10;;;;;;5042730;28;45317;-73
2023/05/14 08:17:35;;;;;;;3.10;2.58;;;19.60;72.10;;;;;;5042721;27;45356;-72
2023/05/14 08:20:02;;;;;;;2.95;2.28;;;19.60;72.00;;;;;;5042680;28;45426;-73
2023/05/14 08:22:28;;;;;;;2.53;1.98;;;19.60;72.10;;;;;;5042308;28;45191;-72
2023/05/14 08:24:55;;;;;;;2.78;2.05;;;19.60;72.00;;;;;;5042385;28;45473;-72
2023/05/14 08:27:22;;;;;;;2.50;2.22;;;19.60;71.90;;;;;;5042502;28;45388;-73
2023/05/14 08:29:50;;;;;;;4.28;2.38;;;19.60;71.90;;;;;;5042461;28;46702;-73
2023/05/14 08:32:17;;;;;;;3.25;2.47;;;19.60;71.90;;;;;;5042795;28;45408;-72
2023/05/14 08:34:44;;;;;;;3.17;2.53;;;19.60;72.00;;;;;;5042835;28;45523;-72
2023/05/14 08:37:11;;;;;;;2.95;2.13;;;19.60;72.10;;;;;;5042304;28;45587;-73
2023/05/14 08:39:37;;;;;;;4.68;2.53;;;19.60;72.20;;;;;;5042310;28;46609;-72
2023/05/14 08:42:07;;;;;;;3.22;2.55;;;19.60;72.20;;;;;;5042130;28;45827;-73
2023/05/14 08:44:39;;;;;;;4.07;2.35;;;19.60;72.20;;;;;;5034656;28;45384;-73
2023/05/14 08:47:08;;;;;;;4.13;2.58;;;19.60;72.30;;;;;;5041818;28;45213;-73
2023/05/14 08:49:42;;;;;;;4.95;2.97;;;19.60;72.30;;;;;;5041988;28;46286;-73
2023/05/14 08:52:09;;;;;;;3.20;2.13;;;19.60;72.50;;;;;;5040945;27;45256;-73
2023/05/14 08:54:37;;;;;;;3.22;2.55;;;19.60;72.50;;;;;;5042402;28;45325;-73
2023/05/14 08:57:04;;;;;;;2.90;2.33;;;19.60;72.40;;;;;;5042065;28;45358;-73
2023/05/14 08:59:31;;;;;;;2.60;2.20;;;19.60;72.40;;;;;;5034162;27;47135;-72
2023/05/14 09:02:01;;;;;;;2.70;2.38;;;19.60;72.30;;;;;;5041265;28;45252;-72
2023/05/14 09:04:31;;;;;;;2.30;2.10;;;19.60;72.20;;;;;;5040891;27;45490;-73
2023/05/14 09:06:59;;;;;;;3.80;2.25;;;19.70;72.20;;;;;;5041743;27;45199;-72
2023/05/14 09:09:27;;;;;;;4.15;2.53;;;19.70;73.40;;;;;;5041869;28;47112;-73
2023/05/14 09:11:54;;;;;;;4.63;2.25;;;19.70;72.30;;;;;;5042006;28;45418;-72
2023/05/14 09:14:23;;;;;;;3.25;2.40;;;19.70;72.20;;;;;;5042179;28;45453;-73
2023/05/14 09:16:51;;;;;;;3.40;2.10;;;19.70;72.20;;;;;;5042108;28;45321;-72
2023/05/14 09:19:18;;;;;;;3.38;2.38;;;19.70;72.20;;;;;;5041778;28;47523;-73
2023/05/14 09:21:48;;;;;;;2.60;2.20;;;19.70;72.30;;;;;;5041570;28;45354;-72
2023/05/14 09:24:20;;;;;;;3.63;2.35;;;19.70;72.30;;;;;;5041783;28;45608;-72
2023/05/14 09:26:50;;;;;;;3.83;2.70;;;19.70;72.40;;;;;;5042354;28;45540;-72
2023/05/14 09:29:17;;;;;;;2.58;2.20;;;19.70;72.40;;;;;;5041879;28;45637;-73
2023/05/14 09:31:43;;;;;;;2.40;2.00;;;19.70;72.40;;;;;;5041967;28;45404;-73
2023/05/14 09:34:10;;;;;;;3.28;2.42;;;19.70;72.40;;;;;;5042205;28;45262;-72
2023/05/14 09:36:37;;;;;;;2.55;2.13;;;19.70;72.30;;;;;;5042263;28;45254;-72
2023/05/14 09:39:06;;;;;;;3.85;2.10;;;19.70;72.30;;;;;;5041640;27;46575;-72
2023/05/14 09:41:32;;;;;;;2.85;2.03;;;19.70;72.30;;;;;;5041928;28;45305;-72
2023/05/14 09:44:00;;;;;;;3.17;2.40;;;19.70;72.20;;;;;;5042042;28;45271;-73
2023/05/14 09:46:30;;;;;;;3.40;2.20;;;19.70;72.20;;;;;;5041032;28;45489;-72
2023/05/14 09:48:57;;;;;;;3.72;2.33;;;19.70;72.20;;;;;;5041977;28;45386;-72
2023/05/14 09:51:24;;;;;;;2.78;1.88;;;19.70;72.10;;;;;;5041450;28;45208;-72
2023/05/14 09:53:53;;;;;;;2.78;2.05;;;19.70;72.10;;;;;;5041523;27;45231;-72
2023/05/14 09:56:21;;;;;;;2.47;2.13;;;19.70;72.00;;;;;;5041385;28;45416;-72
2023/05/14 09:58:48;;;;;;;3.40;2.03;;;19.70;71.90;;;;;;5041594;28;45428;-73
2023/05/14 10:01:19;;;;;;;3.08;2.05;;;19.70;71.90;;;;;;5029748;28;45295;-73
2023/05/14 10:03:47;;;;;;;2.20;2.00;;;19.70;71.80;;;;;;5034854;28;45374;-72
2023/05/14 10:06:18;;;;;;;2.40;1.83;;;19.70;71.80;;;;;;5041052;28;45347;-72
2023/05/14 10:08:48;;;;;;;3.38;2.58;;;19.70;71.70;;;;;;5041543;28;45309;-73
2023/05/14 10:11:21;;;;;;;2.10;1.90;;;19.70;71.70;;;;;;5041542;28;45435;-72
2023/05/14 10:13:55;;;;;;;2.45;1.90;;;19.70;71.70;;;;;;5040133;27;45301;-73
2023/05/14 10:16:28;;;;;;;2.47;1.88;;;19.70;71.70;;;;;;5041016;28;45404;-72
2023/05/14 10:19:00;;;;;;;2.75;2.00;;;19.70;71.90;;;;;;5041205;27;46534;-73
2023/05/14 10:21:30;;;;;;;2.55;2.13;;;19.70;71.90;;;;;;5041478;28;45416;-72
2023/05/14 10:23:58;;;;;;;2.38;2.00;;;19.70;71.90;;;;;;5040638;28;45410;-72
2023/05/14 10:26:25;;;;;;;2.53;2.10;;;19.70;71.90;;;;;;5041245;28;45487;-72
2023/05/14 10:28:54;;;;;;;2.65;1.92;;;19.70;71.90;;;;;;5040962;27;45390;-72
2023/05/14 10:31:23;;;;;;;3.22;1.80;;;19.70;71.80;;;;;;5040744;28;45260;-73
2023/05/14 10:33:51;;;;;;;3.35;2.10;;;19.70;71.70;;;;;;5039942;28;45267;-72
2023/05/14 10:36:18;;;;;;;2.50;1.80;;;19.70;71.70;;;;;;5040843;28;45198;-73
2023/05/14 10:38:45;;;;;;;2.35;1.60;;;19.70;71.60;;;;;;5041028;28;45274;-71
2023/05/14 10:41:13;;;;;;;2.22;1.88;;;19.70;71.60;;;;;;5040648;28;45354;-73
2023/05/14 10:43:41;;;;;;;1.95;1.70;;;19.70;71.60;;;;;;5040829;28;45310;-72
2023/05/14 10:46:12;;;;;;;2.78;1.80;;;19.70;71.50;;;;;;5039433;28;45407;-72
2023/05/14 10:48:41;;;;;;;2.15;1.70;;;19.70;71.50;;;;;;5040465;28;48733;-73
2023/05/14 10:51:10;;;;;;;2.25;2.00;;;19.70;71.40;;;;;;5039849;28;45219;-72
2023/05/14 10:53:38;;;;;;;1.77;1.67;;;19.70;71.50;;;;;;5040961;27;45387;-73
2023/05/14 10:56:06;;;;;;;1.98;1.60;;;19.70;71.40;;;;;;5040390;28;45548;-72
2023/05/14 10:58:36;;;;;;;2.20;1.73;;;19.70;71.40;;;;;;5038816;28;47303;-72
2023/05/14 11:01:04;;;;;;;2.63;2.00;;;19.70;71.50;;;;;;5040931;28;45297;-72
2023/05/14 11:03:39;;;;;;;2.50;1.80;;;19.70;71.40;;;;;;5040616;28;45371;-72
2023/05/14 11:06:07;;;;;;;2.83;1.77;;;19.70;71.40;;;;;;5040327;28;45288;-72
2023/05/14 11:08:34;;;;;;;2.55;1.77;;;19.70;71.30;;;;;;5040203;28;48135;-72
2023/05/14 11:11:01;;;;;;;2.03;1.73;;;19.70;71.20;;;;;;5040510;28;45347;-72
2023/05/14 11:13:27;;;;;;;2.45;1.60;;;19.70;71.20;;;;;;5040413;28;45404;-72
2023/05/14 11:15:55;;;;;;;1.63;1.52;;;19.70;71.20;;;;;;5040656;28;45240;-72
2023/05/14 11:18:28;;;;;;;2.03;1.50;;;19.80;71.30;;;;;;5040138;28;46329;-72
2023/05/14 11:21:00;;;;;;;2.60;1.60;;;19.80;71.10;;;;;;5040181;28;45300;-72
2023/05/14 11:23:27;;;;;;;2.03;1.67;;;19.80;71.10;;;;;;5040239;28;45318;-72
2023/05/14 11:25:56;;;;;;;1.70;1.33;;;19.80;70.90;;;;;;5042017;28;45257;-72
2023/05/14 11:28:23;;;;;;;1.90;1.67;;;19.70;70.40;;;;;;5043078;28;46281;-72
2023/05/14 11:30:50;;;;;;;1.75;1.45;;;19.80;70.50;;;;;;5043510;28;45208;-72
2023/05/14 11:33:18;;;;;;;2.10;1.52;;;19.70;70.30;;;;;;5043152;28;45275;-72
2023/05/14 11:35:45;;;;;;;3.20;1.73;;;19.80;70.10;;;;;;5043239;28;45409;-72
2023/05/14 11:38:17;;;;;;;2.10;1.50;;;19.80;70.10;;;;;;5043018;28;46285;-72
2023/05/14 11:40:52;;;;;;;1.92;1.52;;;19.80;70.00;;;;;;5043156;28;45357;-72
2023/05/14 11:43:19;;;;;;;2.13;1.48;;;19.70;69.90;;;;;;5043012;28;45392;-72
2023/05/14 11:45:50;;;;;;;1.80;1.38;;;19.70;69.80;;;;;;5042291;28;45378;-73
2023/05/14 11:48:17;;;;;;;1.77;1.40;;;19.70;69.70;;;;;;5043124;28;47526;-72
2023/05/14 11:50:45;;;;;;;4.03;1.75;;;19.70;69.70;;;;;;5043036;27;45352;-72
2023/05/14 11:53:18;;;;;;;1.58;1.48;;;19.70;69.70;;;;;;5043422;28;45362;-72
2023/05/14 11:55:46;;;;;;;2.08;1.58;;;19.70;69.70;;;;;;5042453;28;45336;-72
2023/05/14 11:58:14;;;;;;;1.52;1.30;;;19.70;69.80;;;;;;5043086;28;46290;-72
2023/05/14 12:00:41;;;;;;;2.35;1.50;;;19.70;69.90;;;;;;5043271;28;45641;-72
2023/05/14 12:03:09;;;;;;;1.63;1.27;;;19.80;70.00;;;;;;5042833;28;45500;-72
2023/05/14 12:05:39;;;;;;;2.22;1.75;;;19.80;70.30;;;;;;5042498;28;45345;-72
2023/05/14 12:08:22;;;;;;;1.88;1.63;;;19.80;70.00;;;;;;5043118;28;48036;-72
2023/05/14 12:10:49;;;;;;;2.22;1.77;;;19.80;69.90;;;;;;5043006;28;45637;-72
2023/05/14 12:13:17;;;;;;;1.80;1.60;;;19.80;70.00;;;;;;5042878;28;45423;-73
2023/05/14 12:15:46;;;;;;;2.60;1.70;;;19.80;69.80;;;;;;5042799;28;45692;-72
2023/05/14 12:18:13;;;;;;;1.95;1.73;;;19.80;69.80;;;;;;5043077;28;45309;-72
2023/05/14 12:20:45;;;;;;;2.00;1.48;;;19.80;69.50;;;;;;5043057;28;45343;-72
2023/05/14 12:23:13;;;;;;;1.83;1.58;;;19.80;69.40;;;;;;5042596;28;45212;-72
2023/05/14 12:25:49;;;;;;;2.30;1.70;;;19.80;69.30;;;;;;5041693;28;45275;-73
2023/05/14 12:28:16;;;;;;;1.85;1.55;;;19.80;69.40;;;;;;5042600;28;47521;-72
2023/05/14 12:30:42;;;;;;;2.42;1.95;;;19.80;69.20;;;;;;5042875;28;45359;-72
2023/05/14 12:33:09;;;;;;;2.03;1.67;;;19.80;69.10;;;;;;5042761;28;45497;-72
2023/05/14 12:35:36;;;;;;;1.50;1.40;;;19.70;69.10;;;;;;5042677;28;45186;-72
2023/05/14 12:38:03;;;;;;;3.10;1.70;;;19.80;69.10;;;;;;5041342;28;46825;-72
2023/05/14 12:40:30;;;;;;;1.95;1.75;;;19.80;69.10;;;;;;5042596;28;46114;-72
2023/05/14 12:42:58;;;;;;;2.38;1.67;;;19.70;69.00;;;;;;5042303;28;45427;-72
2023/05/14 12:45:25;;;;;;;3.38;1.42;;;19.80;69.10;;;;;;5042439;28;45256;-72
2023/05/14 12:47:52;;;;;;;2.42;1.80;;;19.80;69.10;;;;;;5041710;28;46626;-72
2023/05/14 12:50:19;;;;;;;2.30;1.70;;;19.80;69.10;;;;;;5042404;28;45513;-72